sensor_id;sensor_type;location;lat;lon;timestamp;temperature;humidity
5494;DHT22;2769;49.864;8.656;2022-11-11T00:09:36;10.40;99.90
5494;DHT22;2769;49.864;8.656;2022-11-11T00:16:41;10.40;99.90
5494;DHT22;2769;49.864;8.656;2022-11-11T00:19:46;10.30;99.90
5494;DHT22;2769;49.864;8.656;2022-11-11T00:23:25;10.30;99.90
5494;DHT22;2769;49.864;8.656;2022-11-11T00:30:45;10.20;99.90
5494;DHT22;2769;49.864;8.656;2022-11-11T00:34:03;10.10;99.90
5494;DHT22;2769;49.864;8.656;2022-11-11T00:37:19;10.20;99.90
5494;DHT22;2769;49.864;8.656;2022-11-11T00:40:56;10.10;99.90
5494;DHT22;2769;49.864;8.656;2022-11-11T00:43:51;10.10;99.90
5494;DHT22;2769;49.864;8.656;2022-11-11T00:46:49;10.20;99.90
5494;DHT22;2769;49.864;8.656;2022-11-11T00:50:11;10.20;99.90
5494;DHT22;2769;49.864;8.656;2022-11-11T00:53:27;9.90;99.90
5494;DHT22;2769;49.864;8.656;2022-11-11T00:56:23;10.30;99.90
5494;DHT22;2769;49.864;8.656;2022-11-11T00:59:12;9.90;99.90
5494;DHT22;2769;49.864;8.656;2022-11-11T01:02:06;10.00;99.90
5494;DHT22;2769;49.864;8.656;2022-11-11T01:05:16;10.00;99.90
5494;DHT22;2769;49.864;8.656;2022-11-11T01:08:19;9.90;99.90
5494;DHT22;2769;49.864;8.656;2022-11-11T01:11:14;9.70;99.90
5494;DHT22;2769;49.864;8.656;2022-11-11T02:59:57;9.50;99.90
5494;DHT22;2769;49.864;8.656;2022-11-11T03:02:44;9.60;99.90
5494;DHT22;2769;49.864;8.656;2022-11-11T03:05:31;9.80;99.90
5494;DHT22;2769;49.864;8.656;2022-11-11T03:08:18;10.00;99.90
5494;DHT22;2769;49.864;8.656;2022-11-11T03:11:05;9.60;99.90
5494;DHT22;2769;49.864;8.656;2022-11-11T03:13:52;9.70;99.90
5494;DHT22;2769;49.864;8.656;2022-11-11T03:16:40;9.80;99.90
5494;DHT22;2769;49.864;8.656;2022-11-11T03:19:45;9.80;99.90
5494;DHT22;2769;49.864;8.656;2022-11-11T03:22:32;10.50;99.90
5494;DHT22;2769;49.864;8.656;2022-11-11T03:25:39;10.60;99.90
5494;DHT22;2769;49.864;8.656;2022-11-11T03:28:26;9.70;99.90
5494;DHT22;2769;49.864;8.656;2022-11-11T03:31:13;10.60;99.90
5494;DHT22;2769;49.864;8.656;2022-11-11T03:34:01;9.60;99.90
5494;DHT22;2769;49.864;8.656;2022-11-11T03:37:03;9.80;99.90
5494;DHT22;2769;49.864;8.656;2022-11-11T03:40:08;9.60;99.90
5494;DHT22;2769;49.864;8.656;2022-11-11T03:42:55;9.60;99.90
5494;DHT22;2769;49.864;8.656;2022-11-11T03:45:49;10.40;99.90
5494;DHT22;2769;49.864;8.656;2022-11-11T03:48:36;9.40;99.90
5494;DHT22;2769;49.864;8.656;2022-11-11T03:51:24;10.40;99.90
5494;DHT22;2769;49.864;8.656;2022-11-11T03:54:11;10.10;99.90
5494;DHT22;2769;49.864;8.656;2022-11-11T03:56:58;9.80;99.90
5494;DHT22;2769;49.864;8.656;2022-11-11T03:59:58;9.50;99.90
5494;DHT22;2769;49.864;8.656;2022-11-11T04:02:45;9.50;99.90
5494;DHT22;2769;49.864;8.656;2022-11-11T04:05:49;10.00;99.90
5494;DHT22;2769;49.864;8.656;2022-11-11T04:08:55;9.80;99.90
5494;DHT22;2769;49.864;8.656;2022-11-11T04:11:59;9.90;99.90
5494;DHT22;2769;49.864;8.656;2022-11-11T04:14:46;10.80;99.90
5494;DHT22;2769;49.864;8.656;2022-11-11T04:17:56;10.00;99.90
5494;DHT22;2769;49.864;8.656;2022-11-11T04:20:48;10.80;99.90
5494;DHT22;2769;49.864;8.656;2022-11-11T04:23:52;10.00;99.90
5494;DHT22;2769;49.864;8.656;2022-11-11T04:26:40;10.10;99.90
5494;DHT22;2769;49.864;8.656;2022-11-11T04:29:26;10.70;99.90
5494;DHT22;2769;49.864;8.656;2022-11-11T04:32:14;10.00;99.90
5494;DHT22;2769;49.864;8.656;2022-11-11T04:35:15;10.70;99.90
5494;DHT22;2769;49.864;8.656;2022-11-11T04:38:02;10.00;99.90
5494;DHT22;2769;49.864;8.656;2022-11-11T04:41:03;10.80;99.90
5494;DHT22;2769;49.864;8.656;2022-11-11T04:43:51;10.10;99.90
5494;DHT22;2769;49.864;8.656;2022-11-11T04:47:06;10.70;99.90
5494;DHT22;2769;49.864;8.656;2022-11-11T04:49:53;10.00;99.90
5494;DHT22;2769;49.864;8.656;2022-11-11T04:52:41;11.00;99.90
5494;DHT22;2769;49.864;8.656;2022-11-11T04:55:28;10.70;99.90
5494;DHT22;2769;49.864;8.656;2022-11-11T04:58:34;10.00;99.90
5494;DHT22;2769;49.864;8.656;2022-11-11T05:01:22;9.90;99.90
5494;DHT22;2769;49.864;8.656;2022-11-11T05:04:23;9.90;99.90
5494;DHT22;2769;49.864;8.656;2022-11-11T05:07:09;9.70;99.90
5494;DHT22;2769;49.864;8.656;2022-11-11T05:10:10;9.80;99.90
5494;DHT22;2769;49.864;8.656;2022-11-11T05:12:57;10.00;99.90
5494;DHT22;2769;49.864;8.656;2022-11-11T05:15:58;9.40;99.90
5494;DHT22;2769;49.864;8.656;2022-11-11T05:19:09;10.20;99.90
5494;DHT22;2769;49.864;8.656;2022-11-11T05:22:17;9.40;99.90
5494;DHT22;2769;49.864;8.656;2022-11-11T05:25:06;9.70;99.90
5494;DHT22;2769;49.864;8.656;2022-11-11T05:28:09;9.20;99.90
5494;DHT22;2769;49.864;8.656;2022-11-11T05:30:56;9.90;99.90
5494;DHT22;2769;49.864;8.656;2022-11-11T05:33:43;9.10;99.90
5494;DHT22;2769;49.864;8.656;2022-11-11T05:36:31;9.20;99.90
5494;DHT22;2769;49.864;8.656;2022-11-11T05:39:18;9.40;99.90
5494;DHT22;2769;49.864;8.656;2022-11-11T05:42:05;9.40;99.90
5494;DHT22;2769;49.864;8.656;2022-11-11T05:44:52;10.20;99.90
5494;DHT22;2769;49.864;8.656;2022-11-11T05:47:40;9.60;99.90
5494;DHT22;2769;49.864;8.656;2022-11-11T05:50:27;9.40;99.90
5494;DHT22;2769;49.864;8.656;2022-11-11T05:53:15;10.00;99.90
5494;DHT22;2769;49.864;8.656;2022-11-11T05:56:09;9.60;99.90
5494;DHT22;2769;49.864;8.656;2022-11-11T05:58:55;9.50;99.90
5494;DHT22;2769;49.864;8.656;2022-11-11T06:01:52;10.40;99.90
5494;DHT22;2769;49.864;8.656;2022-11-11T06:04:45;9.50;99.90
5494;DHT22;2769;49.864;8.656;2022-11-11T06:07:36;9.60;99.90
5494;DHT22;2769;49.864;8.656;2022-11-11T06:10:42;9.60;99.90
5494;DHT22;2769;49.864;8.656;2022-11-11T06:13:30;9.60;99.90
5494;DHT22;2769;49.864;8.656;2022-11-11T06:16:18;9.50;99.90
5494;DHT22;2769;49.864;8.656;2022-11-11T06:19:07;9.50;99.90
5494;DHT22;2769;49.864;8.656;2022-11-11T06:21:56;9.50;99.90
5494;DHT22;2769;49.864;8.656;2022-11-11T06:25:22;9.60;99.90
5494;DHT22;2769;49.864;8.656;2022-11-11T06:28:28;9.30;99.90
5494;DHT22;2769;49.864;8.656;2022-11-11T06:31:25;9.40;99.90
5494;DHT22;2769;49.864;8.656;2022-11-11T06:34:18;9.50;99.90
5494;DHT22;2769;49.864;8.656;2022-11-11T06:37:06;8.70;99.90
5494;DHT22;2769;49.864;8.656;2022-11-11T06:39:55;10.20;99.90
5494;DHT22;2769;49.864;8.656;2022-11-11T06:43:01;8.80;99.90
5494;DHT22;2769;49.864;8.656;2022-11-11T06:45:53;10.00;99.90
5494;DHT22;2769;49.864;8.656;2022-11-11T06:48:43;9.20;99.90
5494;DHT22;2769;49.864;8.656;2022-11-11T06:51:31;9.20;99.90
5494;DHT22;2769;49.864;8.656;2022-11-11T06:54:17;9.20;99.90
5494;DHT22;2769;49.864;8.656;2022-11-11T06:57:04;10.20;99.90
5494;DHT22;2769;49.864;8.656;2022-11-11T06:59:53;9.80;99.90
5494;DHT22;2769;49.864;8.656;2022-11-11T07:02:41;10.40;99.90
5494;DHT22;2769;49.864;8.656;2022-11-11T07:05:33;9.70;99.90
5494;DHT22;2769;49.864;8.656;2022-11-11T07:08:22;9.40;99.90
5494;DHT22;2769;49.864;8.656;2022-11-11T07:11:10;8.70;99.90
5494;DHT22;2769;49.864;8.656;2022-11-11T07:14:04;10.10;99.90
5494;DHT22;2769;49.864;8.656;2022-11-11T07:16:51;10.00;99.90
5494;DHT22;2769;49.864;8.656;2022-11-11T07:19:40;9.90;99.90
5494;DHT22;2769;49.864;8.656;2022-11-11T08:47:47;10.20;99.90
5494;DHT22;2769;49.864;8.656;2022-11-11T08:55:41;10.00;99.90
5494;DHT22;2769;49.864;8.656;2022-11-11T09:18:14;10.20;99.90
5494;DHT22;2769;49.864;8.656;2022-11-11T09:53:03;10.50;99.90
5494;DHT22;2769;49.864;8.656;2022-11-11T09:56:15;11.30;99.90
5494;DHT22;2769;49.864;8.656;2022-11-11T09:59:28;10.80;99.90
5494;DHT22;2769;49.864;8.656;2022-11-11T10:03:05;11.60;99.90
5494;DHT22;2769;49.864;8.656;2022-11-11T10:06:20;11.00;99.90
5494;DHT22;2769;49.864;8.656;2022-11-11T10:10:03;12.80;99.90
5494;DHT22;2769;49.864;8.656;2022-11-11T10:35:52;12.10;99.90
5494;DHT22;2769;49.864;8.656;2022-11-11T10:39:14;11.50;99.90
5494;DHT22;2769;49.864;8.656;2022-11-11T13:26:36;13.80;99.90
5494;DHT22;2769;49.864;8.656;2022-11-11T13:32:40;14.00;99.90
5494;DHT22;2769;49.864;8.656;2022-11-11T13:35:30;14.00;99.90
5494;DHT22;2769;49.864;8.656;2022-11-11T13:38:27;13.90;99.90
5494;DHT22;2769;49.864;8.656;2022-11-11T13:41:21;13.90;99.90
5494;DHT22;2769;49.864;8.656;2022-11-11T13:44:20;13.80;99.90
5494;DHT22;2769;49.864;8.656;2022-11-11T13:47:13;13.80;99.90
5494;DHT22;2769;49.864;8.656;2022-11-11T13:50:06;13.90;99.90
5494;DHT22;2769;49.864;8.656;2022-11-11T13:52:58;14.00;99.90
5494;DHT22;2769;49.864;8.656;2022-11-11T13:55:46;14.10;99.90
5494;DHT22;2769;49.864;8.656;2022-11-11T13:58:35;14.10;99.90
5494;DHT22;2769;49.864;8.656;2022-11-11T14:01:32;14.10;99.90
5494;DHT22;2769;49.864;8.656;2022-11-11T14:04:26;14.60;99.90
5494;DHT22;2769;49.864;8.656;2022-11-11T14:07:50;14.10;99.90
5494;DHT22;2769;49.864;8.656;2022-11-11T14:10:53;14.20;99.90
5494;DHT22;2769;49.864;8.656;2022-11-11T14:13:40;14.10;99.90
5494;DHT22;2769;49.864;8.656;2022-11-11T14:17:00;14.10;99.90
5494;DHT22;2769;49.864;8.656;2022-11-11T14:19:48;14.00;99.90
5494;DHT22;2769;49.864;8.656;2022-11-11T14:22:35;13.90;99.90
5494;DHT22;2769;49.864;8.656;2022-11-11T14:25:25;13.70;99.90
5494;DHT22;2769;49.864;8.656;2022-11-11T14:28:19;13.70;99.90
5494;DHT22;2769;49.864;8.656;2022-11-11T14:31:34;13.50;99.90
5494;DHT22;2769;49.864;8.656;2022-11-11T14:34:51;13.50;99.90
5494;DHT22;2769;49.864;8.656;2022-11-11T14:37:59;13.50;99.90
5494;DHT22;2769;49.864;8.656;2022-11-11T14:40:48;13.40;99.90
5494;DHT22;2769;49.864;8.656;2022-11-11T14:43:37;13.30;99.90
5494;DHT22;2769;49.864;8.656;2022-11-11T14:46:25;13.30;99.90
5494;DHT22;2769;49.864;8.656;2022-11-11T14:52:43;13.40;99.90
5494;DHT22;2769;49.864;8.656;2022-11-11T14:55:32;13.20;99.90
5494;DHT22;2769;49.864;8.656;2022-11-11T14:58:20;13.00;99.90
5494;DHT22;2769;49.864;8.656;2022-11-11T15:01:13;13.10;99.90
5494;DHT22;2769;49.864;8.656;2022-11-11T15:04:03;13.20;99.90
5494;DHT22;2769;49.864;8.656;2022-11-11T15:06:55;13.10;99.90
5494;DHT22;2769;49.864;8.656;2022-11-11T15:09:56;13.10;99.90
5494;DHT22;2769;49.864;8.656;2022-11-11T15:13:01;13.00;99.90
5494;DHT22;2769;49.864;8.656;2022-11-11T15:15:56;12.90;99.90
5494;DHT22;2769;49.864;8.656;2022-11-11T15:22:23;12.40;99.90
5494;DHT22;2769;49.864;8.656;2022-11-11T15:25:24;12.40;99.90
5494;DHT22;2769;49.864;8.656;2022-11-11T15:28:30;12.50;99.90
5494;DHT22;2769;49.864;8.656;2022-11-11T15:31:24;12.30;99.90
5494;DHT22;2769;49.864;8.656;2022-11-11T15:34:24;12.00;99.90
5494;DHT22;2769;49.864;8.656;2022-11-11T15:37:15;12.10;99.90
5494;DHT22;2769;49.864;8.656;2022-11-11T15:40:04;12.10;99.90
5494;DHT22;2769;49.864;8.656;2022-11-11T15:42:53;12.10;99.90
5494;DHT22;2769;49.864;8.656;2022-11-11T15:45:40;12.10;99.90
5494;DHT22;2769;49.864;8.656;2022-11-11T15:48:34;12.20;99.90
5494;DHT22;2769;49.864;8.656;2022-11-11T15:51:27;12.40;99.90
5494;DHT22;2769;49.864;8.656;2022-11-11T15:54:18;11.80;99.90
5494;DHT22;2769;49.864;8.656;2022-11-11T15:57:22;11.90;99.90
5494;DHT22;2769;49.864;8.656;2022-11-11T16:00:29;12.10;99.90
5494;DHT22;2769;49.864;8.656;2022-11-11T16:03:19;12.00;99.90
5494;DHT22;2769;49.864;8.656;2022-11-11T16:06:09;12.30;99.90
5494;DHT22;2769;49.864;8.656;2022-11-11T16:08:56;11.70;99.90
5494;DHT22;2769;49.864;8.656;2022-11-11T16:11:44;11.90;99.90
5494;DHT22;2769;49.864;8.656;2022-11-11T16:14:33;11.90;99.90
5494;DHT22;2769;49.864;8.656;2022-11-11T16:17:29;11.80;99.90
5494;DHT22;2769;49.864;8.656;2022-11-11T16:20:21;12.00;99.90
5494;DHT22;2769;49.864;8.656;2022-11-11T16:23:14;11.80;99.90
5494;DHT22;2769;49.864;8.656;2022-11-11T16:26:01;11.90;99.90
5494;DHT22;2769;49.864;8.656;2022-11-11T16:28:51;11.90;99.90
5494;DHT22;2769;49.864;8.656;2022-11-11T16:31:40;12.00;99.90
5494;DHT22;2769;49.864;8.656;2022-11-11T16:34:41;11.80;99.90
5494;DHT22;2769;49.864;8.656;2022-11-11T16:37:29;11.60;99.90
5494;DHT22;2769;49.864;8.656;2022-11-11T16:40:42;11.30;99.90
5494;DHT22;2769;49.864;8.656;2022-11-11T16:43:30;11.30;99.90
5494;DHT22;2769;49.864;8.656;2022-11-11T16:46:38;11.30;99.90
5494;DHT22;2769;49.864;8.656;2022-11-11T16:49:27;11.40;99.90
5494;DHT22;2769;49.864;8.656;2022-11-11T16:52:18;11.40;99.90
5494;DHT22;2769;49.864;8.656;2022-11-11T16:55:05;11.50;99.90
5494;DHT22;2769;49.864;8.656;2022-11-11T16:57:53;11.70;99.90
5494;DHT22;2769;49.864;8.656;2022-11-11T17:00:40;11.60;99.90
5494;DHT22;2769;49.864;8.656;2022-11-11T17:03:28;11.40;99.90
5494;DHT22;2769;49.864;8.656;2022-11-11T17:06:16;11.50;99.90
5494;DHT22;2769;49.864;8.656;2022-11-11T17:12:30;11.60;99.90
5494;DHT22;2769;49.864;8.656;2022-11-11T17:15:20;11.90;99.90
5494;DHT22;2769;49.864;8.656;2022-11-11T17:18:07;11.50;99.90
5494;DHT22;2769;49.864;8.656;2022-11-11T17:20:54;11.30;99.90
5494;DHT22;2769;49.864;8.656;2022-11-11T17:23:42;11.50;99.90
5494;DHT22;2769;49.864;8.656;2022-11-11T17:26:29;11.10;99.90
5494;DHT22;2769;49.864;8.656;2022-11-11T17:29:20;11.80;99.90
5494;DHT22;2769;49.864;8.656;2022-11-11T17:32:07;11.30;99.90
5494;DHT22;2769;49.864;8.656;2022-11-11T17:34:54;11.80;99.90
5494;DHT22;2769;49.864;8.656;2022-11-11T17:37:41;11.70;99.90
5494;DHT22;2769;49.864;8.656;2022-11-11T17:40:29;11.50;99.90
5494;DHT22;2769;49.864;8.656;2022-11-11T17:43:16;11.90;99.90
5494;DHT22;2769;49.864;8.656;2022-11-11T17:46:05;11.40;99.90
5494;DHT22;2769;49.864;8.656;2022-11-11T17:48:52;11.40;99.90
5494;DHT22;2769;49.864;8.656;2022-11-11T17:51:40;11.40;99.90
5494;DHT22;2769;49.864;8.656;2022-11-11T17:54:27;11.60;99.90
5494;DHT22;2769;49.864;8.656;2022-11-11T17:57:14;11.70;99.90
5494;DHT22;2769;49.864;8.656;2022-11-11T18:00:02;11.30;99.90
5494;DHT22;2769;49.864;8.656;2022-11-11T18:02:50;11.30;99.90
5494;DHT22;2769;49.864;8.656;2022-11-11T18:05:37;11.20;99.90
5494;DHT22;2769;49.864;8.656;2022-11-11T18:08:24;11.30;99.90
5494;DHT22;2769;49.864;8.656;2022-11-11T18:11:11;11.20;99.90
5494;DHT22;2769;49.864;8.656;2022-11-11T18:13:58;11.70;99.90
5494;DHT22;2769;49.864;8.656;2022-11-11T18:16:45;11.60;99.90
5494;DHT22;2769;49.864;8.656;2022-11-11T18:19:33;11.20;99.90
5494;DHT22;2769;49.864;8.656;2022-11-11T18:22:20;10.90;99.90
5494;DHT22;2769;49.864;8.656;2022-11-11T18:25:07;11.20;99.90
5494;DHT22;2769;49.864;8.656;2022-11-11T18:27:54;11.00;99.90
5494;DHT22;2769;49.864;8.656;2022-11-11T18:30:40;11.10;99.90
5494;DHT22;2769;49.864;8.656;2022-11-11T18:33:27;11.10;99.90
5494;DHT22;2769;49.864;8.656;2022-11-11T18:36:17;11.10;99.90
5494;DHT22;2769;49.864;8.656;2022-11-11T18:39:05;11.10;99.90
5494;DHT22;2769;49.864;8.656;2022-11-11T18:41:51;11.90;99.90
5494;DHT22;2769;49.864;8.656;2022-11-11T18:44:38;11.30;99.90
5494;DHT22;2769;49.864;8.656;2022-11-11T18:47:25;11.90;99.90
5494;DHT22;2769;49.864;8.656;2022-11-11T18:50:12;11.50;99.90
5494;DHT22;2769;49.864;8.656;2022-11-11T18:53:00;11.40;99.90
5494;DHT22;2769;49.864;8.656;2022-11-11T18:55:46;11.20;99.90
5494;DHT22;2769;49.864;8.656;2022-11-11T18:58:34;11.20;99.90
5494;DHT22;2769;49.864;8.656;2022-11-11T19:01:23;11.40;99.90
5494;DHT22;2769;49.864;8.656;2022-11-11T19:04:11;11.40;99.90
5494;DHT22;2769;49.864;8.656;2022-11-11T19:06:57;11.20;99.90
5494;DHT22;2769;49.864;8.656;2022-11-11T19:09:45;11.20;99.90
5494;DHT22;2769;49.864;8.656;2022-11-11T19:12:32;11.10;99.90
5494;DHT22;2769;49.864;8.656;2022-11-11T19:15:22;11.20;99.90
5494;DHT22;2769;49.864;8.656;2022-11-11T19:18:10;11.10;99.90
5494;DHT22;2769;49.864;8.656;2022-11-11T19:20:57;11.10;99.90
5494;DHT22;2769;49.864;8.656;2022-11-11T19:23:45;11.10;99.90
5494;DHT22;2769;49.864;8.656;2022-11-11T19:26:34;11.30;99.90
5494;DHT22;2769;49.864;8.656;2022-11-11T19:29:21;11.60;99.90
5494;DHT22;2769;49.864;8.656;2022-11-11T19:32:08;11.10;99.90
5494;DHT22;2769;49.864;8.656;2022-11-11T19:34:55;11.10;99.90
5494;DHT22;2769;49.864;8.656;2022-11-11T19:37:42;11.20;99.90
5494;DHT22;2769;49.864;8.656;2022-11-11T19:40:29;11.30;99.90
5494;DHT22;2769;49.864;8.656;2022-11-11T19:43:18;11.30;99.90
5494;DHT22;2769;49.864;8.656;2022-11-11T19:46:06;11.20;99.90
5494;DHT22;2769;49.864;8.656;2022-11-11T19:48:55;11.20;99.90
5494;DHT22;2769;49.864;8.656;2022-11-11T19:51:41;11.50;99.90
5494;DHT22;2769;49.864;8.656;2022-11-11T19:54:28;10.90;99.90
5494;DHT22;2769;49.864;8.656;2022-11-11T19:57:15;11.00;99.90
5494;DHT22;2769;49.864;8.656;2022-11-11T20:00:04;11.60;99.90
5494;DHT22;2769;49.864;8.656;2022-11-11T20:02:53;11.00;99.90
5494;DHT22;2769;49.864;8.656;2022-11-11T20:05:40;10.90;99.90
5494;DHT22;2769;49.864;8.656;2022-11-11T20:08:27;10.90;99.90
5494;DHT22;2769;49.864;8.656;2022-11-11T20:11:15;11.10;99.90
5494;DHT22;2769;49.864;8.656;2022-11-11T20:14:02;11.20;99.90
5494;DHT22;2769;49.864;8.656;2022-11-11T20:16:50;11.50;99.90
5494;DHT22;2769;49.864;8.656;2022-11-11T20:19:37;11.00;99.90
5494;DHT22;2769;49.864;8.656;2022-11-11T20:22:26;11.00;99.90
5494;DHT22;2769;49.864;8.656;2022-11-11T20:25:13;11.30;99.90
5494;DHT22;2769;49.864;8.656;2022-11-11T20:28:00;11.00;99.90
5494;DHT22;2769;49.864;8.656;2022-11-11T20:30:47;11.40;99.90
5494;DHT22;2769;49.864;8.656;2022-11-11T20:33:35;11.10;99.90
5494;DHT22;2769;49.864;8.656;2022-11-11T20:36:22;11.00;99.90
5494;DHT22;2769;49.864;8.656;2022-11-11T20:39:08;10.90;99.90
5494;DHT22;2769;49.864;8.656;2022-11-11T20:41:55;10.90;99.90
5494;DHT22;2769;49.864;8.656;2022-11-11T20:44:42;11.20;99.90
5494;DHT22;2769;49.864;8.656;2022-11-11T20:47:28;10.60;99.90
5494;DHT22;2769;49.864;8.656;2022-11-11T20:50:20;10.90;99.90
5494;DHT22;2769;49.864;8.656;2022-11-11T20:53:07;10.90;99.90
5494;DHT22;2769;49.864;8.656;2022-11-11T20:55:58;10.90;99.90
5494;DHT22;2769;49.864;8.656;2022-11-11T20:58:45;10.90;99.90
5494;DHT22;2769;49.864;8.656;2022-11-11T21:01:33;10.90;99.90
5494;DHT22;2769;49.864;8.656;2022-11-11T21:04:20;10.90;99.90
5494;DHT22;2769;49.864;8.656;2022-11-11T21:07:10;11.00;99.90
5494;DHT22;2769;49.864;8.656;2022-11-11T21:09:57;11.00;99.90
5494;DHT22;2769;49.864;8.656;2022-11-11T21:12:44;11.00;99.90
5494;DHT22;2769;49.864;8.656;2022-11-11T21:15:31;10.90;99.90
5494;DHT22;2769;49.864;8.656;2022-11-11T21:18:18;10.90;99.90
5494;DHT22;2769;49.864;8.656;2022-11-11T21:21:06;10.90;99.90
5494;DHT22;2769;49.864;8.656;2022-11-11T21:23:58;10.90;99.90
5494;DHT22;2769;49.864;8.656;2022-11-11T21:26:46;10.90;99.90
5494;DHT22;2769;49.864;8.656;2022-11-11T21:29:33;10.80;99.90
5494;DHT22;2769;49.864;8.656;2022-11-11T21:32:20;10.70;99.90
5494;DHT22;2769;49.864;8.656;2022-11-11T21:35:07;10.80;99.90
5494;DHT22;2769;49.864;8.656;2022-11-11T21:37:54;10.80;99.90
5494;DHT22;2769;49.864;8.656;2022-11-11T21:40:42;10.80;99.90
5494;DHT22;2769;49.864;8.656;2022-11-11T21:43:29;10.90;99.90
5494;DHT22;2769;49.864;8.656;2022-11-11T21:46:17;11.20;99.90
5494;DHT22;2769;49.864;8.656;2022-11-11T21:49:04;10.90;99.90
5494;DHT22;2769;49.864;8.656;2022-11-11T21:51:54;10.90;99.90
5494;DHT22;2769;49.864;8.656;2022-11-11T21:54:41;10.90;99.90
5494;DHT22;2769;49.864;8.656;2022-11-11T21:57:29;10.80;99.90
5494;DHT22;2769;49.864;8.656;2022-11-11T22:00:17;10.80;99.90
5494;DHT22;2769;49.864;8.656;2022-11-11T22:03:04;10.70;99.90
5494;DHT22;2769;49.864;8.656;2022-11-11T22:05:51;10.70;99.90
5494;DHT22;2769;49.864;8.656;2022-11-11T22:08:38;10.80;99.90
5494;DHT22;2769;49.864;8.656;2022-11-11T22:11:27;11.20;99.90
5494;DHT22;2769;49.864;8.656;2022-11-11T22:14:16;10.70;99.90
5494;DHT22;2769;49.864;8.656;2022-11-11T22:17:03;10.80;99.90
5494;DHT22;2769;49.864;8.656;2022-11-11T22:19:50;10.60;99.90
5494;DHT22;2769;49.864;8.656;2022-11-11T22:22:37;10.50;99.90
5494;DHT22;2769;49.864;8.656;2022-11-11T22:25:23;10.50;99.90
5494;DHT22;2769;49.864;8.656;2022-11-11T22:28:12;10.50;99.90
5494;DHT22;2769;49.864;8.656;2022-11-11T22:31:08;10.70;99.90
5494;DHT22;2769;49.864;8.656;2022-11-11T22:33:56;10.70;99.90
5494;DHT22;2769;49.864;8.656;2022-11-11T22:36:44;11.10;99.90
5494;DHT22;2769;49.864;8.656;2022-11-11T22:39:31;11.30;99.90
5494;DHT22;2769;49.864;8.656;2022-11-11T22:42:17;10.70;99.90
5494;DHT22;2769;49.864;8.656;2022-11-11T22:45:05;10.80;99.90
5494;DHT22;2769;49.864;8.656;2022-11-11T22:47:53;10.90;99.90
5494;DHT22;2769;49.864;8.656;2022-11-11T22:50:40;10.90;99.90
5494;DHT22;2769;49.864;8.656;2022-11-11T22:53:27;10.80;99.90
5494;DHT22;2769;49.864;8.656;2022-11-11T22:56:15;10.80;99.90
5494;DHT22;2769;49.864;8.656;2022-11-11T22:59:03;10.70;99.90
5494;DHT22;2769;49.864;8.656;2022-11-11T23:01:50;10.80;99.90
5494;DHT22;2769;49.864;8.656;2022-11-11T23:04:38;10.90;99.90
5494;DHT22;2769;49.864;8.656;2022-11-11T23:07:25;10.80;99.90
5494;DHT22;2769;49.864;8.656;2022-11-11T23:10:12;10.90;99.90
5494;DHT22;2769;49.864;8.656;2022-11-11T23:12:59;10.70;99.90
5494;DHT22;2769;49.864;8.656;2022-11-11T23:15:52;10.70;99.90
5494;DHT22;2769;49.864;8.656;2022-11-11T23:18:39;10.70;99.90
5494;DHT22;2769;49.864;8.656;2022-11-11T23:21:27;11.10;99.90
5494;DHT22;2769;49.864;8.656;2022-11-11T23:24:14;11.30;99.90
5494;DHT22;2769;49.864;8.656;2022-11-11T23:27:01;11.00;99.90
5494;DHT22;2769;49.864;8.656;2022-11-11T23:29:48;11.00;99.90
5494;DHT22;2769;49.864;8.656;2022-11-11T23:32:37;11.10;99.90
5494;DHT22;2769;49.864;8.656;2022-11-11T23:35:23;11.10;99.90
5494;DHT22;2769;49.864;8.656;2022-11-11T23:38:12;11.00;99.90
5494;DHT22;2769;49.864;8.656;2022-11-11T23:41:02;10.90;99.90
5494;DHT22;2769;49.864;8.656;2022-11-11T23:43:49;11.10;99.90
5494;DHT22;2769;49.864;8.656;2022-11-11T23:46:36;11.00;99.90
5494;DHT22;2769;49.864;8.656;2022-11-11T23:49:23;11.40;99.90
5494;DHT22;2769;49.864;8.656;2022-11-11T23:52:09;11.40;99.90
5494;DHT22;2769;49.864;8.656;2022-11-11T23:54:57;11.00;99.90
5494;DHT22;2769;49.864;8.656;2022-11-11T23:57:44;11.00;99.90
